Terminal Aerodrome Forecast
Issued by NWS Paducah, KY

Home | Current Version | Previous Version | Text Only | Print | Product List | Glossary On
Versions: 1 2 3 4 5 6 7 8 9 10 11 12 13 14 15 16
000
FTUS43 KPAH 282300
TAFEVV
TAF
KEVV 282330Z 2900/2924 34010KT P6SM FEW040
     FM290100 35003KT P6SM SKC
     FM291300 34007KT P6SM BKN060=

USA.gov is the U.S. government's official web portal to all federal, state and local government web resources and services.